Pagina principale
METAR-TAF:

METAR-TAF

Aeroporti :

Aeroporto militare

Meppen, Germania

latitudine: 52-43-24N, longitudine: 007-19-35E, altezza: 21 m

Osservazione

Il bollettino è stato emesso 52 minuti fa, alle 19:20 UTC
Vento 13 kt da ovest con raffiche fino a 23 kt
Temperature 9°C
Umidità 87%
Pressione 998 hPa

METAR: ETWM 161920Z AUTO 27013G23KT //// // ////// 09/07 Q0998 ///

Ora: 21:12 (20:12 UTC)


TAF: mancante

Osservazioni e previsioni meteorologiche di più di 4000 aeroporti (messaggi METAR e TAF).

Le stazioni disponibili sono rappresentate dai dischi gialli e rossi sulla carta.

Puntare il mouse per vedere il nome della stazione.

Clicca sopra per visualizzare le osservazioni e previsioni meteorologiche.

Per cambiare la mappa : fare clic sui pulsanti verdi con una croce nera per ingrandire, il pulsante verde con un trattino per diminuire, o sulla freccia verde per le mappe adiacenti.


METAR-TAF: